sensor_id;sensor_type;location;lat;lon;timestamp;P1;durP1;ratioP1;P2;durP2;ratioP2
75207;SDS011;63795;55.684;37.864;2022-12-24T00:00:06;15.95;;;10.77;;
75207;SDS011;63795;55.684;37.864;2022-12-24T00:05:07;11.57;;;5.90;;
75207;SDS011;63795;55.684;37.864;2022-12-24T00:10:09;11.35;;;5.90;;
75207;SDS011;63795;55.684;37.864;2022-12-24T00:15:10;10.40;;;5.35;;
75207;SDS011;63795;55.684;37.864;2022-12-24T00:20:10;18.52;;;8.20;;
75207;SDS011;63795;55.684;37.864;2022-12-24T00:25:11;15.38;;;6.90;;
75207;SDS011;63795;55.684;37.864;2022-12-24T00:30:11;17.87;;;8.73;;
75207;SDS011;63795;55.684;37.864;2022-12-24T00:35:12;10.60;;;5.03;;
75207;SDS011;63795;55.684;37.864;2022-12-24T00:40:12;18.90;;;8.20;;
75207;SDS011;63795;55.684;37.864;2022-12-24T00:45:13;16.13;;;6.65;;
75207;SDS011;63795;55.684;37.864;2022-12-24T00:50:14;17.83;;;7.60;;
75207;SDS011;63795;55.684;37.864;2022-12-24T00:55:14;14.95;;;6.35;;
75207;SDS011;63795;55.684;37.864;2022-12-24T01:00:15;18.48;;;7.43;;
75207;SDS011;63795;55.684;37.864;2022-12-24T01:05:16;23.50;;;9.98;;
75207;SDS011;63795;55.684;37.864;2022-12-24T01:10:19;19.98;;;8.82;;
75207;SDS011;63795;55.684;37.864;2022-12-24T01:15:20;20.73;;;8.98;;
75207;SDS011;63795;55.684;37.864;2022-12-24T01:20:21;20.83;;;11.70;;
75207;SDS011;63795;55.684;37.864;2022-12-24T01:25:21;17.88;;;6.82;;
75207;SDS011;63795;55.684;37.864;2022-12-24T01:30:22;19.83;;;9.57;;
75207;SDS011;63795;55.684;37.864;2022-12-24T01:35:22;20.90;;;10.65;;
75207;SDS011;63795;55.684;37.864;2022-12-24T01:40:24;17.60;;;8.98;;
75207;SDS011;63795;55.684;37.864;2022-12-24T01:45:46;18.00;;;8.90;;
75207;SDS011;63795;55.684;37.864;2022-12-24T01:50:47;18.85;;;7.95;;
75207;SDS011;63795;55.684;37.864;2022-12-24T01:55:50;18.25;;;7.32;;
75207;SDS011;63795;55.684;37.864;2022-12-24T02:00:52;16.80;;;8.25;;
75207;SDS011;63795;55.684;37.864;2022-12-24T02:05:53;16.05;;;6.07;;
75207;SDS011;63795;55.684;37.864;2022-12-24T02:10:57;11.25;;;5.53;;
75207;SDS011;63795;55.684;37.864;2022-12-24T02:26:59;12.63;;;6.38;;
75207;SDS011;63795;55.684;37.864;2022-12-24T02:32:21;15.40;;;8.48;;
75207;SDS011;63795;55.684;37.864;2022-12-24T02:37:25;15.25;;;7.80;;
75207;SDS011;63795;55.684;37.864;2022-12-24T02:42:31;12.98;;;6.10;;
75207;SDS011;63795;55.684;37.864;2022-12-24T02:47:38;17.98;;;9.73;;
75207;SDS011;63795;55.684;37.864;2022-12-24T02:52:42;14.20;;;4.65;;
75207;SDS011;63795;55.684;37.864;2022-12-24T03:03:26;17.90;;;9.38;;
75207;SDS011;63795;55.684;37.864;2022-12-24T03:13:43;17.75;;;7.50;;
75207;SDS011;63795;55.684;37.864;2022-12-24T03:18:45;19.60;;;12.57;;
75207;SDS011;63795;55.684;37.864;2022-12-24T03:23:48;21.25;;;11.25;;
75207;SDS011;63795;55.684;37.864;2022-12-24T03:28:48;21.95;;;10.35;;
75207;SDS011;63795;55.684;37.864;2022-12-24T03:33:49;24.55;;;9.75;;
75207;SDS011;63795;55.684;37.864;2022-12-24T03:38:50;34.03;;;16.17;;
75207;SDS011;63795;55.684;37.864;2022-12-24T03:43:50;24.98;;;13.45;;
75207;SDS011;63795;55.684;37.864;2022-12-24T03:48:51;23.50;;;14.50;;
75207;SDS011;63795;55.684;37.864;2022-12-24T03:53:52;30.30;;;14.40;;
75207;SDS011;63795;55.684;37.864;2022-12-24T03:58:52;17.75;;;7.78;;
75207;SDS011;63795;55.684;37.864;2022-12-24T04:03:53;29.42;;;14.00;;
75207;SDS011;63795;55.684;37.864;2022-12-24T04:08:53;34.57;;;17.27;;
75207;SDS011;63795;55.684;37.864;2022-12-24T04:13:54;20.95;;;8.65;;
75207;SDS011;63795;55.684;37.864;2022-12-24T04:18:54;31.45;;;12.52;;
75207;SDS011;63795;55.684;37.864;2022-12-24T04:23:55;22.73;;;10.13;;
75207;SDS011;63795;55.684;37.864;2022-12-24T04:28:55;31.52;;;14.23;;
75207;SDS011;63795;55.684;37.864;2022-12-24T04:33:56;34.80;;;16.52;;
75207;SDS011;63795;55.684;37.864;2022-12-24T04:38:56;27.87;;;12.90;;
75207;SDS011;63795;55.684;37.864;2022-12-24T04:43:57;36.53;;;15.38;;
75207;SDS011;63795;55.684;37.864;2022-12-24T04:48:58;29.38;;;13.00;;
75207;SDS011;63795;55.684;37.864;2022-12-24T04:53:58;27.20;;;13.55;;
75207;SDS011;63795;55.684;37.864;2022-12-24T04:58:59;30.17;;;13.13;;
75207;SDS011;63795;55.684;37.864;2022-12-24T05:04:02;25.20;;;10.57;;
75207;SDS011;63795;55.684;37.864;2022-12-24T05:09:02;29.13;;;11.65;;
75207;SDS011;63795;55.684;37.864;2022-12-24T05:14:03;21.98;;;9.88;;
75207;SDS011;63795;55.684;37.864;2022-12-24T05:19:03;16.35;;;7.28;;
75207;SDS011;63795;55.684;37.864;2022-12-24T05:24:04;32.35;;;12.57;;
75207;SDS011;63795;55.684;37.864;2022-12-24T05:29:23;25.08;;;11.35;;
75207;SDS011;63795;55.684;37.864;2022-12-24T05:34:24;27.83;;;12.88;;
75207;SDS011;63795;55.684;37.864;2022-12-24T05:39:24;21.13;;;10.73;;
75207;SDS011;63795;55.684;37.864;2022-12-24T05:44:25;18.17;;;8.45;;
75207;SDS011;63795;55.684;37.864;2022-12-24T05:49:25;27.48;;;12.00;;
75207;SDS011;63795;55.684;37.864;2022-12-24T05:54:26;30.48;;;13.00;;
75207;SDS011;63795;55.684;37.864;2022-12-24T05:59:27;21.58;;;10.10;;
75207;SDS011;63795;55.684;37.864;2022-12-24T06:04:27;25.25;;;11.98;;
75207;SDS011;63795;55.684;37.864;2022-12-24T06:09:28;24.35;;;11.43;;
75207;SDS011;63795;55.684;37.864;2022-12-24T06:14:28;24.77;;;13.23;;
75207;SDS011;63795;55.684;37.864;2022-12-24T06:19:29;36.60;;;19.37;;
75207;SDS011;63795;55.684;37.864;2022-12-24T06:24:29;32.60;;;14.63;;
75207;SDS011;63795;55.684;37.864;2022-12-24T06:29:30;24.92;;;12.88;;
75207;SDS011;63795;55.684;37.864;2022-12-24T06:34:30;29.53;;;14.83;;
75207;SDS011;63795;55.684;37.864;2022-12-24T06:39:30;23.53;;;11.40;;
75207;SDS011;63795;55.684;37.864;2022-12-24T06:44:31;30.77;;;14.40;;
75207;SDS011;63795;55.684;37.864;2022-12-24T06:49:31;28.55;;;12.13;;
75207;SDS011;63795;55.684;37.864;2022-12-24T06:54:32;26.40;;;12.35;;
75207;SDS011;63795;55.684;37.864;2022-12-24T06:59:32;23.15;;;11.52;;
75207;SDS011;63795;55.684;37.864;2022-12-24T07:04:33;19.25;;;9.68;;
75207;SDS011;63795;55.684;37.864;2022-12-24T07:09:33;30.90;;;11.60;;
75207;SDS011;63795;55.684;37.864;2022-12-24T07:14:34;30.27;;;14.05;;
75207;SDS011;63795;55.684;37.864;2022-12-24T07:19:34;33.28;;;12.90;;
75207;SDS011;63795;55.684;37.864;2022-12-24T07:24:35;22.35;;;9.48;;
75207;SDS011;63795;55.684;37.864;2022-12-24T07:29:35;23.38;;;10.07;;
75207;SDS011;63795;55.684;37.864;2022-12-24T07:34:36;21.08;;;11.27;;
75207;SDS011;63795;55.684;37.864;2022-12-24T07:39:36;27.38;;;13.82;;
75207;SDS011;63795;55.684;37.864;2022-12-24T07:44:37;21.40;;;8.95;;
75207;SDS011;63795;55.684;37.864;2022-12-24T07:49:37;30.20;;;14.50;;
75207;SDS011;63795;55.684;37.864;2022-12-24T07:54:38;22.52;;;11.95;;
75207;SDS011;63795;55.684;37.864;2022-12-24T07:59:39;30.70;;;14.77;;
75207;SDS011;63795;55.684;37.864;2022-12-24T08:04:39;31.30;;;16.23;;
75207;SDS011;63795;55.684;37.864;2022-12-24T08:09:40;25.70;;;12.68;;
75207;SDS011;63795;55.684;37.864;2022-12-24T08:14:40;27.75;;;12.10;;
75207;SDS011;63795;55.684;37.864;2022-12-24T08:19:41;30.73;;;12.88;;
75207;SDS011;63795;55.684;37.864;2022-12-24T08:24:41;23.23;;;13.05;;
75207;SDS011;63795;55.684;37.864;2022-12-24T08:29:41;20.98;;;9.95;;
75207;SDS011;63795;55.684;37.864;2022-12-24T08:34:42;20.48;;;10.35;;
75207;SDS011;63795;55.684;37.864;2022-12-24T08:39:42;21.17;;;9.03;;
75207;SDS011;63795;55.684;37.864;2022-12-24T08:44:43;30.20;;;13.88;;
75207;SDS011;63795;55.684;37.864;2022-12-24T08:49:43;20.83;;;9.60;;
75207;SDS011;63795;55.684;37.864;2022-12-24T08:54:44;16.23;;;8.43;;
75207;SDS011;63795;55.684;37.864;2022-12-24T08:59:44;19.00;;;7.82;;
75207;SDS011;63795;55.684;37.864;2022-12-24T09:04:45;19.48;;;8.55;;
75207;SDS011;63795;55.684;37.864;2022-12-24T09:09:45;17.23;;;8.13;;
75207;SDS011;63795;55.684;37.864;2022-12-24T09:14:46;31.92;;;17.88;;
75207;SDS011;63795;55.684;37.864;2022-12-24T09:19:46;29.20;;;12.98;;
75207;SDS011;63795;55.684;37.864;2022-12-24T09:24:47;20.40;;;9.82;;
75207;SDS011;63795;55.684;37.864;2022-12-24T09:29:47;26.33;;;12.23;;
75207;SDS011;63795;55.684;37.864;2022-12-24T09:34:48;24.90;;;11.55;;
75207;SDS011;63795;55.684;37.864;2022-12-24T09:39:48;20.15;;;8.85;;
75207;SDS011;63795;55.684;37.864;2022-12-24T09:50:25;16.70;;;6.85;;
75207;SDS011;63795;55.684;37.864;2022-12-24T09:55:32;17.27;;;8.75;;
75207;SDS011;63795;55.684;37.864;2022-12-24T10:00:39;19.35;;;9.45;;
75207;SDS011;63795;55.684;37.864;2022-12-24T10:05:47;32.63;;;15.05;;
75207;SDS011;63795;55.684;37.864;2022-12-24T10:11:02;29.92;;;12.93;;
75207;SDS011;63795;55.684;37.864;2022-12-24T10:16:08;39.10;;;19.13;;
75207;SDS011;63795;55.684;37.864;2022-12-24T10:26:24;19.42;;;9.80;;
75207;SDS011;63795;55.684;37.864;2022-12-24T10:31:32;32.28;;;13.88;;
75207;SDS011;63795;55.684;37.864;2022-12-24T10:36:35;33.38;;;17.58;;
75207;SDS011;63795;55.684;37.864;2022-12-24T10:41:35;21.10;;;9.97;;
75207;SDS011;63795;55.684;37.864;2022-12-24T10:46:37;28.33;;;10.73;;
75207;SDS011;63795;55.684;37.864;2022-12-24T10:51:46;16.98;;;7.55;;
75207;SDS011;63795;55.684;37.864;2022-12-24T10:56:55;27.02;;;13.02;;
75207;SDS011;63795;55.684;37.864;2022-12-24T11:01:58;32.65;;;14.65;;
75207;SDS011;63795;55.684;37.864;2022-12-24T11:07:02;35.63;;;13.05;;
75207;SDS011;63795;55.684;37.864;2022-12-24T11:12:05;28.70;;;11.95;;
75207;SDS011;63795;55.684;37.864;2022-12-24T11:17:19;38.22;;;16.73;;
75207;SDS011;63795;55.684;37.864;2022-12-24T11:22:29;29.85;;;14.27;;
75207;SDS011;63795;55.684;37.864;2022-12-24T11:27:44;33.80;;;15.77;;
75207;SDS011;63795;55.684;37.864;2022-12-24T11:43:04;31.38;;;11.18;;
75207;SDS011;63795;55.684;37.864;2022-12-24T11:48:21;27.65;;;13.68;;
75207;SDS011;63795;55.684;37.864;2022-12-24T12:04:21;25.38;;;12.20;;
75207;SDS011;63795;55.684;37.864;2022-12-24T12:09:29;21.77;;;8.88;;
75207;SDS011;63795;55.684;37.864;2022-12-24T12:14:39;25.40;;;10.95;;
75207;SDS011;63795;55.684;37.864;2022-12-24T12:19:52;20.23;;;8.07;;
75207;SDS011;63795;55.684;37.864;2022-12-24T12:25:52;22.75;;;9.95;;
75207;SDS011;63795;55.684;37.864;2022-12-24T12:30:33;12.23;;;6.53;;
75207;SDS011;63795;55.684;37.864;2022-12-24T12:35:38;20.75;;;9.30;;
75207;SDS011;63795;55.684;37.864;2022-12-24T12:40:48;12.48;;;6.90;;
75207;SDS011;63795;55.684;37.864;2022-12-24T12:45:54;15.95;;;6.18;;
75207;SDS011;63795;55.684;37.864;2022-12-24T12:51:12;12.18;;;5.32;;
75207;SDS011;63795;55.684;37.864;2022-12-24T12:56:23;9.13;;;4.78;;
75207;SDS011;63795;55.684;37.864;2022-12-24T13:12:31;9.15;;;4.55;;
75207;SDS011;63795;55.684;37.864;2022-12-24T13:23:14;9.73;;;4.60;;
75207;SDS011;63795;55.684;37.864;2022-12-24T13:38:56;16.20;;;7.35;;
75207;SDS011;63795;55.684;37.864;2022-12-24T13:49:15;9.97;;;4.67;;
75207;SDS011;63795;55.684;37.864;2022-12-24T13:54:17;10.20;;;4.65;;
75207;SDS011;63795;55.684;37.864;2022-12-24T13:59:25;8.40;;;2.90;;
75207;SDS011;63795;55.684;37.864;2022-12-24T14:04:34;7.50;;;3.42;;
75207;SDS011;63795;55.684;37.864;2022-12-24T14:09:36;8.60;;;3.85;;
75207;SDS011;63795;55.684;37.864;2022-12-24T14:14:38;7.63;;;3.55;;
75207;SDS011;63795;55.684;37.864;2022-12-24T14:19:41;8.13;;;3.75;;
75207;SDS011;63795;55.684;37.864;2022-12-24T14:30:06;7.85;;;4.43;;
75207;SDS011;63795;55.684;37.864;2022-12-24T14:35:16;8.45;;;3.92;;
75207;SDS011;63795;55.684;37.864;2022-12-24T14:40:26;10.00;;;4.63;;
75207;SDS011;63795;55.684;37.864;2022-12-24T14:45:43;10.88;;;4.53;;
75207;SDS011;63795;55.684;37.864;2022-12-24T14:56:15;9.15;;;4.35;;
75207;SDS011;63795;55.684;37.864;2022-12-24T15:01:24;9.73;;;3.85;;
75207;SDS011;63795;55.684;37.864;2022-12-24T15:06:26;6.65;;;3.33;;
75207;SDS011;63795;55.684;37.864;2022-12-24T15:11:30;9.07;;;2.92;;
75207;SDS011;63795;55.684;37.864;2022-12-24T15:16:32;6.90;;;2.15;;
75207;SDS011;63795;55.684;37.864;2022-12-24T15:21:36;7.22;;;3.17;;
75207;SDS011;63795;55.684;37.864;2022-12-24T15:26:43;10.40;;;4.13;;
75207;SDS011;63795;55.684;37.864;2022-12-24T15:31:43;13.20;;;4.00;;
75207;SDS011;63795;55.684;37.864;2022-12-24T15:36:44;8.13;;;3.33;;
75207;SDS011;63795;55.684;37.864;2022-12-24T15:41:44;6.00;;;3.03;;
75207;SDS011;63795;55.684;37.864;2022-12-24T15:47:07;10.75;;;6.80;;
75207;SDS011;63795;55.684;37.864;2022-12-24T15:52:16;9.98;;;6.00;;
75207;SDS011;63795;55.684;37.864;2022-12-24T15:57:25;11.43;;;4.25;;
75207;SDS011;63795;55.684;37.864;2022-12-24T16:07:37;10.10;;;3.83;;
75207;SDS011;63795;55.684;37.864;2022-12-24T16:12:57;8.57;;;3.78;;
75207;SDS011;63795;55.684;37.864;2022-12-24T16:17:59;9.40;;;3.25;;
75207;SDS011;63795;55.684;37.864;2022-12-24T16:23:00;10.35;;;4.63;;
75207;SDS011;63795;55.684;37.864;2022-12-24T16:28:00;8.77;;;3.03;;
75207;SDS011;63795;55.684;37.864;2022-12-24T16:33:02;10.32;;;4.65;;
75207;SDS011;63795;55.684;37.864;2022-12-24T16:38:02;12.07;;;5.50;;
75207;SDS011;63795;55.684;37.864;2022-12-24T16:43:03;9.32;;;4.72;;
75207;SDS011;63795;55.684;37.864;2022-12-24T16:48:24;8.00;;;4.15;;
75207;SDS011;63795;55.684;37.864;2022-12-24T16:53:25;9.60;;;3.83;;
75207;SDS011;63795;55.684;37.864;2022-12-24T16:58:26;11.27;;;4.70;;
75207;SDS011;63795;55.684;37.864;2022-12-24T17:03:27;8.38;;;3.88;;
75207;SDS011;63795;55.684;37.864;2022-12-24T17:08:28;9.43;;;3.90;;
75207;SDS011;63795;55.684;37.864;2022-12-24T17:13:28;7.32;;;2.80;;
75207;SDS011;63795;55.684;37.864;2022-12-24T17:18:29;7.72;;;4.57;;
75207;SDS011;63795;55.684;37.864;2022-12-24T17:23:29;7.47;;;3.40;;
75207;SDS011;63795;55.684;37.864;2022-12-24T17:28:29;9.57;;;4.27;;
75207;SDS011;63795;55.684;37.864;2022-12-24T17:33:30;7.53;;;4.13;;
75207;SDS011;63795;55.684;37.864;2022-12-24T17:38:30;8.50;;;3.90;;
75207;SDS011;63795;55.684;37.864;2022-12-24T17:43:31;8.40;;;4.70;;
75207;SDS011;63795;55.684;37.864;2022-12-24T17:48:35;7.05;;;2.67;;
75207;SDS011;63795;55.684;37.864;2022-12-24T17:53:37;10.40;;;5.00;;
75207;SDS011;63795;55.684;37.864;2022-12-24T17:58:39;9.57;;;4.47;;
75207;SDS011;63795;55.684;37.864;2022-12-24T18:03:44;9.10;;;4.75;;
75207;SDS011;63795;55.684;37.864;2022-12-24T18:08:45;11.23;;;4.70;;
75207;SDS011;63795;55.684;37.864;2022-12-24T18:13:47;12.98;;;3.45;;
75207;SDS011;63795;55.684;37.864;2022-12-24T18:18:48;9.32;;;3.72;;
75207;SDS011;63795;55.684;37.864;2022-12-24T18:23:50;6.20;;;2.95;;
75207;SDS011;63795;55.684;37.864;2022-12-24T18:28:52;7.63;;;2.58;;
75207;SDS011;63795;55.684;37.864;2022-12-24T18:33:53;7.15;;;3.03;;
75207;SDS011;63795;55.684;37.864;2022-12-24T18:38:54;7.55;;;2.20;;
75207;SDS011;63795;55.684;37.864;2022-12-24T18:43:55;5.68;;;1.45;;
75207;SDS011;63795;55.684;37.864;2022-12-24T18:48:57;6.85;;;3.53;;
75207;SDS011;63795;55.684;37.864;2022-12-24T18:53:59;6.53;;;3.08;;
75207;SDS011;63795;55.684;37.864;2022-12-24T18:59:01;5.70;;;2.15;;
75207;SDS011;63795;55.684;37.864;2022-12-24T19:04:02;5.45;;;1.65;;
75207;SDS011;63795;55.684;37.864;2022-12-24T19:09:03;3.88;;;1.13;;
75207;SDS011;63795;55.684;37.864;2022-12-24T19:14:03;6.05;;;2.67;;
75207;SDS011;63795;55.684;37.864;2022-12-24T19:19:06;3.50;;;1.50;;
75207;SDS011;63795;55.684;37.864;2022-12-24T19:24:08;6.07;;;1.77;;
75207;SDS011;63795;55.684;37.864;2022-12-24T19:29:09;4.00;;;2.22;;
75207;SDS011;63795;55.684;37.864;2022-12-24T19:34:10;4.95;;;2.20;;
75207;SDS011;63795;55.684;37.864;2022-12-24T19:39:10;4.13;;;1.10;;
75207;SDS011;63795;55.684;37.864;2022-12-24T19:44:10;5.50;;;2.40;;
75207;SDS011;63795;55.684;37.864;2022-12-24T19:49:11;3.07;;;1.40;;
75207;SDS011;63795;55.684;37.864;2022-12-24T19:54:12;4.85;;;1.55;;
75207;SDS011;63795;55.684;37.864;2022-12-24T19:59:13;4.03;;;2.08;;
75207;SDS011;63795;55.684;37.864;2022-12-24T20:04:13;3.90;;;1.88;;
75207;SDS011;63795;55.684;37.864;2022-12-24T20:14:17;8.27;;;3.17;;
75207;SDS011;63795;55.684;37.864;2022-12-24T20:19:18;7.25;;;3.70;;
75207;SDS011;63795;55.684;37.864;2022-12-24T20:24:18;5.80;;;1.60;;
75207;SDS011;63795;55.684;37.864;2022-12-24T20:29:19;4.32;;;2.35;;
75207;SDS011;63795;55.684;37.864;2022-12-24T20:34:19;3.60;;;1.60;;
75207;SDS011;63795;55.684;37.864;2022-12-24T20:39:20;5.72;;;1.40;;
75207;SDS011;63795;55.684;37.864;2022-12-24T20:44:20;4.60;;;1.02;;
75207;SDS011;63795;55.684;37.864;2022-12-24T20:49:21;5.25;;;2.03;;
75207;SDS011;63795;55.684;37.864;2022-12-24T20:54:21;4.97;;;1.92;;
75207;SDS011;63795;55.684;37.864;2022-12-24T20:59:22;4.22;;;1.63;;
75207;SDS011;63795;55.684;37.864;2022-12-24T21:04:24;4.50;;;2.25;;
75207;SDS011;63795;55.684;37.864;2022-12-24T21:09:25;4.30;;;1.67;;
75207;SDS011;63795;55.684;37.864;2022-12-24T21:14:25;4.85;;;1.83;;
75207;SDS011;63795;55.684;37.864;2022-12-24T21:19:26;2.83;;;0.88;;
75207;SDS011;63795;55.684;37.864;2022-12-24T21:24:27;4.37;;;2.97;;
75207;SDS011;63795;55.684;37.864;2022-12-24T21:29:27;10.00;;;4.30;;
75207;SDS011;63795;55.684;37.864;2022-12-24T21:34:28;5.93;;;2.70;;
75207;SDS011;63795;55.684;37.864;2022-12-24T21:39:28;7.17;;;3.47;;
75207;SDS011;63795;55.684;37.864;2022-12-24T21:44:29;4.68;;;1.33;;
75207;SDS011;63795;55.684;37.864;2022-12-24T21:49:29;5.82;;;1.83;;
75207;SDS011;63795;55.684;37.864;2022-12-24T21:54:48;7.10;;;1.38;;
75207;SDS011;63795;55.684;37.864;2022-12-24T21:59:49;6.60;;;3.38;;
75207;SDS011;63795;55.684;37.864;2022-12-24T22:04:51;8.40;;;1.52;;
75207;SDS011;63795;55.684;37.864;2022-12-24T22:09:52;8.60;;;2.60;;
75207;SDS011;63795;55.684;37.864;2022-12-24T22:15:11;6.82;;;4.10;;
75207;SDS011;63795;55.684;37.864;2022-12-24T22:20:11;7.90;;;3.50;;
75207;SDS011;63795;55.684;37.864;2022-12-24T22:25:12;8.40;;;2.20;;
75207;SDS011;63795;55.684;37.864;2022-12-24T22:30:13;6.22;;;1.80;;
75207;SDS011;63795;55.684;37.864;2022-12-24T22:35:13;6.55;;;2.40;;
75207;SDS011;63795;55.684;37.864;2022-12-24T22:40:14;5.40;;;2.58;;
75207;SDS011;63795;55.684;37.864;2022-12-24T22:45:14;7.82;;;2.95;;
75207;SDS011;63795;55.684;37.864;2022-12-24T22:50:15;9.30;;;2.03;;
75207;SDS011;63795;55.684;37.864;2022-12-24T22:55:16;6.53;;;2.33;;
75207;SDS011;63795;55.684;37.864;2022-12-24T23:00:35;6.72;;;4.10;;
75207;SDS011;63795;55.684;37.864;2022-12-24T23:05:44;4.45;;;2.13;;
75207;SDS011;63795;55.684;37.864;2022-12-24T23:10:44;4.18;;;1.45;;
75207;SDS011;63795;55.684;37.864;2022-12-24T23:15:45;3.83;;;1.17;;
75207;SDS011;63795;55.684;37.864;2022-12-24T23:20:45;4.13;;;2.20;;
75207;SDS011;63795;55.684;37.864;2022-12-24T23:25:46;3.90;;;1.00;;
75207;SDS011;63795;55.684;37.864;2022-12-24T23:30:55;5.10;;;2.97;;
75207;SDS011;63795;55.684;37.864;2022-12-24T23:40:57;3.27;;;1.30;;
75207;SDS011;63795;55.684;37.864;2022-12-24T23:45:59;2.72;;;0.52;;
75207;SDS011;63795;55.684;37.864;2022-12-24T23:51:07;2.28;;;1.30;;
75207;SDS011;63795;55.684;37.864;2022-12-24T23:56:10;2.58;;;1.27;;
